ADDS METAR Data INFO
IDs: Format: Raw Decoded Include TAF

Data at: 0507 UTC 23 May 2017

KBPT 230453Z AUTO 32005KT 10SM OVC010 21/19 A2985 RMK AO2 CIG 007V013 SLP108 T02060194
KBPT 230353Z AUTO 36006KT 10SM OVC010 21/19 A2985 RMK AO2 CIG 008V014 SLP108 T02110189
KBPT 230253Z AUTO 35006KT 10SM OVC012 21/19 A2985 RMK AO2 SLP108 60000 T02110194 53006
KBPT 230153Z 35007KT 10SM OVC012 21/19 A2984 RMK AO2 SLP104 T02110189
KBPT 230109Z 35008KT 10SM BKN013 22/19 A2984 RMK AO2 T02170194
KBPT 230053Z 33008KT 10SM SCT013 22/19 A2983 RMK AO2 RAE10 SLP102 P0000 T02170194
KBPT 222353Z 30008KT 10SM -RA CLR 23/21 A2983 RMK AO2 RAE11B50 SLP102 P0001 60014 T02330206 10272 20217 58011
KBPT 222253Z 28003KT 10SM -RA SCT050 BKN075 OVC110 22/20 A2985 RMK AO2 WSHFT 2140 SLP108 P0009 T02170200
KBPT 222156Z 32012KT 5SM RA BR FEW017 BKN027 OVC034 22/20 A2987 RMK AO2 WSHFT 2140 P0000 T02170200
KBPT 222153Z 31014G22KT 9SM -RA FEW017 BKN027 OVC049 22/20 A2986 RMK AO2 WSHFT 2136 RAE03B43 SLP112 P0001 T02170200
KBPT 222145Z 32017G23KT 10SM -RA SCT017 BKN027 OVC039 23/20 A2986 RMK AO2 RAE03B43 P0000 T02280200
KBPT 222053Z 17010KT 10SM -RA FEW022 SCT050 OVC065 26/21 A2987 RMK AO2 RAB52 SLP113 P0000 60003 T02560211 56023
KBPT 222000Z 17015G21KT 10SM FEW020 SCT100 26/21 A2988 RMK AO2 T02610206
KBPT 221953Z 18015G24KT 10SM SCT013 BKN020 OVC100 27/23 A2988 RMK AO2 RAB1859E24 SLP117 P0000 T02720228
KBPT 221916Z 18013G20KT 10SM -RA FEW013 BKN020 OVC110 26/23 A2990 RMK AO2 RAB1859 P0000 T02560228
KBPT 221853Z 17013G18KT 10SM BKN012 BKN022 OVC044 26/23 A2991 RMK AO2 RAE50 SLP127 P0003 T02560233
KBPT 221845Z 17010KT 10SM -RA SCT013 BKN024 OVC110 26/24 A2992 RMK AO2 P0003 T02560239
KBPT 221834Z 16011KT 6SM R12/6000VP6000FT -RA BR BKN013 BKN028 OVC060 25/24 A2992 RMK AO2 P0003 T02500239
KBPT 221753Z 16012KT 7SM -RA FEW018 SCT095 BKN110 24/23 A2994 RMK AO2 SLP136 P0004 60030 T02440228 10244 20217 58013
KBPT 221653Z 13010KT 8SM -RA FEW018 SCT095 BKN110 23/22 A2994 RMK AO2 SLP139 P0005 T02280217
KBPT 221630Z 13013KT 8SM -RA SCT015 BKN037 OVC110 22/21 A2996 RMK AO2 P0004 T02220211
KBPT 221553Z 11009KT 10SM -RA BKN019 OVC024 22/21 A2998 RMK AO2 SLP152 P0001 T02220211
KBPT 221540Z 11007KT 10SM -RA BKN023 BKN039 OVC048 22/21 A2998 RMK AO2 P0001 T02220211
KBPT 221453Z 10010KT 10SM -RA FEW030 SCT046 BKN110 22/21 A2997 RMK AO2 SLP149 P0001 60020 T02170206 56010
KBPT 221353Z 11011KT 10SM -RA FEW029 BKN046 OVC120 22/21 A2999 RMK AO2 LTG DSNT NE RAB1254E04B37 SLP154 P0019 T02170206 $
KBPT 221351Z 11011KT 10SM -RA SCT031 BKN048 OVC085 22/21 A2999 RMK AO2 LTG DSNT NE RAB1254E04B37 P0019 $
KBPT 221318Z 11015G19KT 3SM VCTS FEW018 BKN046 OVC070 22/21 A2999 RMK AO2 LTG DSNT ALQDS RAB1254E04 P0015 T02220206 $
KBPT 221309Z 12009G18KT 1 1/2SM VCTS FEW018 BKN044 OVC075 23/21 A2998 RMK AO2 LTG DSNT ALQDS RAB1254E04 P0009 T02280211 $
KBPT 221303Z 17006KT 2 1/2SM +RA BR SCT018 BKN043 OVC080 23/22 A3000 RMK AO2 LTG DSNT ALQDS RAB1254 P0001 T02280217 $
KBPT 221253Z 20005KT 10SM VCTS FEW018 BKN080 OVC095 23/21 A3000 RMK AO2 LTG DSNT S AND W PRESRR SLP159 T02330211 $
KBPT 221248Z 17005KT 10SM VCTS FEW044 OVC085 23/21 A2999 RMK AO2 LTG DSNT S-W $
KBPT 221153Z 15007KT 10SM SCT018 SCT024 OVC090 23/21 A2998 RMK AO2 LTG DSNT SW SLP151 60001 70329 T02330211 10233 20222 55000 $
KBPT 221135Z 13007KT 10SM SCT018 SCT023 BKN085 23/21 A2997 RMK AO2 T02330211 $
KBPT 221053Z AUTO 13009G14KT 10SM BKN019 OVC025 23/21 A2997 RMK AO2 PK WND 15028/1003 SLP150 T02330206 $
KBPT 220953Z AUTO 13012G23KT 10SM BKN017 BKN022 BKN110 23/21 A2997 RMK AO2 SLP147 T02330211 $
KBPT 220853Z AUTO 10SM FEW070 BKN120 23/21 A2998 RMK AO2 PK WND 01029/0847 RAB20E40 SLP151 P0000 60001 T02280206 $
KBPT 220835Z AUTO 12015G23KT 10SM -RA SCT017 SCT055 BKN070 23/21 A2999 RMK AO2 RAB20 P0000 T02280206 $
KBPT 220753Z AUTO 13012G17KT 10SM SCT016 BKN021 OVC029 23/21 A3002 RMK AO2 RAB06E26 SLP166 P0001 T02280211 $
KBPT 220736Z AUTO 12009KT 10SM SCT013 BKN025 OVC050 23/21 A3002 RMK AO2 LTG DSNT W RAB06E26 P0001 T02280211 $
KBPT 220653Z AUTO 09010KT 10SM BKN014 OVC025 23/21 A3005 RMK AO2 LTG DSNT SE AND S RAE12 SLP174 P0000 T02280211
KBPT 220553Z AUTO 09013G18KT 10SM -RA BKN012 BKN050 BKN100 22/21 A3001 RMK AO2 RAB15 PRESFR SLP163 P0000 60000 T02220206 10233 20217 402610217 58015
KBPT 220517Z AUTO 06007KT 10SM -RA BKN010 BKN014 22/21 A3005 RMK AO2 RAB15 CIG 008V012 P0000 T02170206
KBPT 220453Z AUTO 05007KT 10SM FEW010 22/20 A3004 RMK AO2 SLP173 T02170200
KBPT 220353Z AUTO 04008KT 10SM OVC090 22/20 A3005 RMK AO2 SLP175 T02170200
KBPT 220253Z 06006KT 10SM SCT055 OVC075 22/20 A3006 RMK AO2 SLP178 T02170200 53031
KBPT 220153Z 03006KT 10SM SCT007 22/20 A3003 RMK AO2 SLP169 T02220200
KBPT 220053Z 04016G21KT 10SM SCT008 23/21 A2997 RMK AO2 SLP146 T02280211
KBPT 220050Z 04013KT 10SM FEW008 23/21 A2997 RMK AO2
KBPT 212353Z 08004KT 10SM FEW075 23/21 A2998 RMK AO2 RAE34 SLP152 P0001 60010 T02330211 10261 20222 58009
KBPT 212326Z 07003KT 10SM -RA SCT010 BKN060 BKN075 23/21 A3000 RMK AO2 P0001 T02280211
KBPT 212317Z 08007KT 10SM -RA BKN010 BKN070 OVC110 22/21 A3000 RMK AO2 LTG DSNT N P0001 T02220211
KBPT 212253Z 35004KT 10SM VCTS -RA FEW010 SCT018 BKN022 22/21 A3001 RMK AO2 LTG DSNT N TSB05E22 SLP163 P0003 T02220206
KBPT 212228Z 04006KT 7SM VCTS RA FEW042 BKN050 OVC100 22/20 A3002 RMK AO2 LTG DSNT ALQDS TSB05E22 P0001 T02220200
KBPT 212211Z 02006KT 10SM -TSRA SCT042 BKN070 OVC100 22/20 A3002 RMK AO2 LTG DSNT ALQDS TSB05 P0000 T02220200
KBPT 212153Z 03010KT 10SM VCTS -RA FEW040 BKN065 OVC100 22/21 A3001 RMK AO2 LTG DSNT ALQDS RAE16B40 SLP160 P0000 T02220206
KBPT 212108Z 02013G23KT 10SM VCTS -RA FEW009 BKN030 OVC039 23/21 A3001 RMK AO2 LTG DSNT ALQDS P0000 T02280211
KBPT 212100Z 02018G23KT 10SM VCTS -RA FEW009 BKN024 OVC035 23/21 A3000 RMK AO2 LTG DSNT ALQDS P0000 T02280206
KBPT 212053Z 01018G23KT 8SM VCTS -RA BKN009 BKN019 OVC032 23/21 A3001 RMK AO2 LTG DSNT ALQDS RAB38 CIG 007V014 SLP161 P0006 60006 T02280211 55002
KBPT 212023Z 04015G22KT 10SM VCTS BKN008 OVC095 24/23 A3001 RMK AO2 LTG DSNT NE AND E CIG 006V011 T02440228
KBPT 212015Z 02012G17KT 10SM VCTS SCT008 BKN030 OVC095 26/24 A3001 RMK AO2 LTG DSNT N-E T02560239
KBPT 211953Z 35004KT 10SM VCTS SCT015 BKN033 OVC075 26/24 A3001 RMK AO2 LTG DSNT N-E PRESRR SLP160 T02560244
KBPT 211853Z 26003KT 10SM VCTS SCT015 BKN033 OVC075 25/24 A3001 RMK AO2 LTG DSNT ALQDS SLP161 T02500239
KBPT 211846Z 00000KT 10SM VCTS SCT015 BKN033 OVC075 25/24 A3000 RMK AO2 LTG DSNT ALQDS T02500239
KBPT 211753Z 00000KT 10SM SCT017 BKN033 BKN050 25/24 A3002 RMK AO2 LTG DSNT ALQDS RAE53 TSE10B32E47 SLP164 P0032 60318 T02500239 10261 20239 58001
KBPT 211745Z 00000KT 3SM -TSRA BR FEW017 BKN050 OVC070 24/23 A3001 RMK AO2 LTG DSNT ALQDS TSE10B32 P0032 T02440233
KBPT 211743Z 00000KT 1 1/2SM R12/3500VP6000FT TSRA BR SCT037 BKN050 OVC080 24/23 A3001 RMK AO2 LTG DSNT ALQDS TSE10B32 PRESFR P0032 T02440233
KBPT 211739Z 34003KT 3/4SM R12/3000VP6000FT +TSRA BR SCT037 BKN050 OVC085 24/23 A3002 RMK AO2 LTG DSNT ALQDS TSE10B32 P0029 T02440233
KBPT 211732Z 28005KT 1SM R12/3000VP6000FT +TSRA BR SCT041 BKN065 OVC120 24/23 A3003 RMK AO2 LTG DSNT ALQDS TSE10B32 P0014 T02390228
KBPT 211730Z 25007KT 1 3/4SM R12/4000VP6000FT +RA BR SCT046 BKN065 OVC110 24/23 A3003 RMK AO2 LTG DSNT ALQDS TSE10 P0012 T02390228
KBPT 211714Z 22005KT 10SM -RA FEW018 BKN100 OVC120 25/24 A3002 RMK AO2 LTG DSNT ALQDS TSE10 P0010 T02500239
KBPT 211709Z 18004KT 7SM -TSRA FEW018 BKN033 OVC110 25/24 A3002 RMK AO2 LTG DSNT ALQDS P0009 T02500239


Page loaded:  05:07 UTC  |   10:07 PM Pacific  |   11:07 PM Mountain  |   12:07 AM Central  |   01:07 AM Eastern

 

ADVISORIES

FORECASTS

FORECASTS

OBSERVATIONS

USER TOOLS

ABOUT US